sensor_id;sensor_type;location;lat;lon;timestamp;temperature;humidity
17859;DHT22;35426;30.698;104.050;2023-06-22T00:02:19;26.40;99.90
17859;DHT22;35426;30.698;104.050;2023-06-22T00:04:54;26.40;99.90
17859;DHT22;35426;30.698;104.050;2023-06-22T00:07:30;26.50;99.90
17859;DHT22;35426;30.698;104.050;2023-06-22T00:10:07;26.60;99.90
17859;DHT22;35426;30.698;104.050;2023-06-22T00:12:41;26.70;99.90
17859;DHT22;35426;30.698;104.050;2023-06-22T00:15:16;26.70;99.90
17859;DHT22;35426;30.698;104.050;2023-06-22T00:17:52;26.80;99.90
17859;DHT22;35426;30.698;104.050;2023-06-22T00:20:26;26.80;99.90
17859;DHT22;35426;30.698;104.050;2023-06-22T00:23:05;26.80;99.90
17859;DHT22;35426;30.698;104.050;2023-06-22T00:25:40;26.80;99.90
17859;DHT22;35426;30.698;104.050;2023-06-22T00:28:14;27.00;99.90
17859;DHT22;35426;30.698;104.050;2023-06-22T00:30:49;26.90;99.90
17859;DHT22;35426;30.698;104.050;2023-06-22T00:33:23;26.90;99.90
17859;DHT22;35426;30.698;104.050;2023-06-22T00:35:58;27.00;99.90
17859;DHT22;35426;30.698;104.050;2023-06-22T00:38:33;27.10;99.90
17859;DHT22;35426;30.698;104.050;2023-06-22T00:41:10;27.10;99.90
17859;DHT22;35426;30.698;104.050;2023-06-22T00:43:45;27.20;99.90
17859;DHT22;35426;30.698;104.050;2023-06-22T00:46:20;27.40;99.90
17859;DHT22;35426;30.698;104.050;2023-06-22T00:48:54;27.60;99.90
17859;DHT22;35426;30.698;104.050;2023-06-22T00:51:29;27.70;99.90
17859;DHT22;35426;30.698;104.050;2023-06-22T00:54:06;27.80;99.90
17859;DHT22;35426;30.698;104.050;2023-06-22T00:56:41;27.90;99.90
17859;DHT22;35426;30.698;104.050;2023-06-22T00:59:16;28.30;99.90
17859;DHT22;35426;30.698;104.050;2023-06-22T01:01:51;29.10;99.90
17859;DHT22;35426;30.698;104.050;2023-06-22T01:04:35;29.60;99.90
17859;DHT22;35426;30.698;104.050;2023-06-22T01:07:16;29.80;99.90
17859;DHT22;35426;30.698;104.050;2023-06-22T01:09:58;30.00;99.90
17859;DHT22;35426;30.698;104.050;2023-06-22T01:12:37;30.90;99.90
17859;DHT22;35426;30.698;104.050;2023-06-22T01:15:13;31.80;99.90
17859;DHT22;35426;30.698;104.050;2023-06-22T01:17:49;31.80;99.90
17859;DHT22;35426;30.698;104.050;2023-06-22T01:20:25;31.50;99.90
17859;DHT22;35426;30.698;104.050;2023-06-22T01:23:10;31.50;99.90
17859;DHT22;35426;30.698;104.050;2023-06-22T01:25:53;31.40;99.90
17859;DHT22;35426;30.698;104.050;2023-06-22T01:28:45;31.50;99.90
17859;DHT22;35426;30.698;104.050;2023-06-22T01:31:22;31.30;99.90
17859;DHT22;35426;30.698;104.050;2023-06-22T01:34:02;31.50;99.90
17859;DHT22;35426;30.698;104.050;2023-06-22T01:36:40;31.60;99.90
17859;DHT22;35426;30.698;104.050;2023-06-22T01:39:17;31.60;99.90
17859;DHT22;35426;30.698;104.050;2023-06-22T01:41:54;31.50;99.90
17859;DHT22;35426;30.698;104.050;2023-06-22T01:44:32;32.30;99.90
17859;DHT22;35426;30.698;104.050;2023-06-22T01:47:10;32.20;99.90
17859;DHT22;35426;30.698;104.050;2023-06-22T01:49:45;32.40;99.90
17859;DHT22;35426;30.698;104.050;2023-06-22T01:52:21;32.50;99.90
17859;DHT22;35426;30.698;104.050;2023-06-22T01:54:54;32.10;99.90
17859;DHT22;35426;30.698;104.050;2023-06-22T01:57:28;32.00;99.90
17859;DHT22;35426;30.698;104.050;2023-06-22T02:00:04;32.00;99.90
17859;DHT22;35426;30.698;104.050;2023-06-22T02:02:46;32.70;99.90
17859;DHT22;35426;30.698;104.050;2023-06-22T02:05:25;33.40;99.90
17859;DHT22;35426;30.698;104.050;2023-06-22T02:08:06;33.70;99.90
17859;DHT22;35426;30.698;104.050;2023-06-22T02:10:41;34.10;99.90
17859;DHT22;35426;30.698;104.050;2023-06-22T02:13:16;34.50;99.90
17859;DHT22;35426;30.698;104.050;2023-06-22T02:15:56;34.60;99.90
17859;DHT22;35426;30.698;104.050;2023-06-22T02:18:30;34.70;99.90
17859;DHT22;35426;30.698;104.050;2023-06-22T02:21:08;34.50;99.90
17859;DHT22;35426;30.698;104.050;2023-06-22T02:23:43;33.10;99.90
17859;DHT22;35426;30.698;104.050;2023-06-22T02:26:18;33.00;99.90
17859;DHT22;35426;30.698;104.050;2023-06-22T02:28:52;32.20;99.90
17859;DHT22;35426;30.698;104.050;2023-06-22T02:31:29;32.60;99.90
17859;DHT22;35426;30.698;104.050;2023-06-22T02:34:05;32.60;99.90
17859;DHT22;35426;30.698;104.050;2023-06-22T02:36:39;32.40;99.90
17859;DHT22;35426;30.698;104.050;2023-06-22T02:39:24;32.60;99.90
17859;DHT22;35426;30.698;104.050;2023-06-22T02:41:57;33.30;99.90
17859;DHT22;35426;30.698;104.050;2023-06-22T02:44:32;33.80;99.90
17859;DHT22;35426;30.698;104.050;2023-06-22T02:47:08;34.40;99.90
17859;DHT22;35426;30.698;104.050;2023-06-22T02:49:42;34.30;99.90
17859;DHT22;35426;30.698;104.050;2023-06-22T02:52:17;34.30;99.90
17859;DHT22;35426;30.698;104.050;2023-06-22T02:54:53;35.00;99.90
17859;DHT22;35426;30.698;104.050;2023-06-22T02:57:27;35.40;99.90
17859;DHT22;35426;30.698;104.050;2023-06-22T03:00:02;35.30;99.90
17859;DHT22;35426;30.698;104.050;2023-06-22T03:02:45;35.40;99.90
17859;DHT22;35426;30.698;104.050;2023-06-22T03:05:20;35.40;99.90
17859;DHT22;35426;30.698;104.050;2023-06-22T03:07:55;35.50;99.90
17859;DHT22;35426;30.698;104.050;2023-06-22T03:10:34;35.10;99.90
17859;DHT22;35426;30.698;104.050;2023-06-22T03:13:07;34.50;99.90
17859;DHT22;35426;30.698;104.050;2023-06-22T03:15:41;34.80;99.90
17859;DHT22;35426;30.698;104.050;2023-06-22T03:18:19;34.30;99.90
17859;DHT22;35426;30.698;104.050;2023-06-22T03:20:53;34.60;99.90
17859;DHT22;35426;30.698;104.050;2023-06-22T03:23:27;34.40;99.90
17859;DHT22;35426;30.698;104.050;2023-06-22T03:26:01;34.20;99.90
17859;DHT22;35426;30.698;104.050;2023-06-22T03:28:37;34.80;99.90
17859;DHT22;35426;30.698;104.050;2023-06-22T03:31:11;35.10;99.90
17859;DHT22;35426;30.698;104.050;2023-06-22T03:33:46;34.80;99.90
17859;DHT22;35426;30.698;104.050;2023-06-22T03:36:23;34.90;99.90
17859;DHT22;35426;30.698;104.050;2023-06-22T03:38:57;34.60;99.90
17859;DHT22;35426;30.698;104.050;2023-06-22T03:41:32;34.40;99.90
17859;DHT22;35426;30.698;104.050;2023-06-22T03:44:06;34.20;99.90
17859;DHT22;35426;30.698;104.050;2023-06-22T03:46:44;34.10;99.90
17859;DHT22;35426;30.698;104.050;2023-06-22T03:49:19;34.00;99.90
17859;DHT22;35426;30.698;104.050;2023-06-22T03:51:52;33.90;99.90
17859;DHT22;35426;30.698;104.050;2023-06-22T03:54:27;34.00;99.90
17859;DHT22;35426;30.698;104.050;2023-06-22T03:57:02;33.90;99.90
17859;DHT22;35426;30.698;104.050;2023-06-22T03:59:36;33.80;99.90
17859;DHT22;35426;30.698;104.050;2023-06-22T04:02:10;33.90;99.90
17859;DHT22;35426;30.698;104.050;2023-06-22T04:04:49;34.20;99.90
17859;DHT22;35426;30.698;104.050;2023-06-22T04:07:23;34.20;99.90
17859;DHT22;35426;30.698;104.050;2023-06-22T04:09:56;33.00;99.90
17859;DHT22;35426;30.698;104.050;2023-06-22T04:12:29;32.60;99.90
17859;DHT22;35426;30.698;104.050;2023-06-22T04:15:05;32.70;99.90
17859;DHT22;35426;30.698;104.050;2023-06-22T04:17:40;33.40;99.90
17859;DHT22;35426;30.698;104.050;2023-06-22T04:20:15;33.40;99.90
17859;DHT22;35426;30.698;104.050;2023-06-22T04:22:48;33.50;99.90
17859;DHT22;35426;30.698;104.050;2023-06-22T04:25:23;33.50;99.90
17859;DHT22;35426;30.698;104.050;2023-06-22T04:27:57;33.50;99.90
17859;DHT22;35426;30.698;104.050;2023-06-22T04:30:34;33.40;99.90
17859;DHT22;35426;30.698;104.050;2023-06-22T04:33:17;33.30;99.90
17859;DHT22;35426;30.698;104.050;2023-06-22T04:35:54;33.10;99.90
17859;DHT22;35426;30.698;104.050;2023-06-22T04:38:32;32.50;99.90
17859;DHT22;35426;30.698;104.050;2023-06-22T04:41:06;32.90;99.90
17859;DHT22;35426;30.698;104.050;2023-06-22T04:43:45;33.30;99.90
17859;DHT22;35426;30.698;104.050;2023-06-22T04:46:24;33.40;99.90
17859;DHT22;35426;30.698;104.050;2023-06-22T04:48:57;33.10;99.90
17859;DHT22;35426;30.698;104.050;2023-06-22T04:51:33;33.00;99.90
17859;DHT22;35426;30.698;104.050;2023-06-22T04:54:08;32.90;99.90
17859;DHT22;35426;30.698;104.050;2023-06-22T04:56:43;32.60;99.90
17859;DHT22;35426;30.698;104.050;2023-06-22T04:59:17;32.60;99.90
17859;DHT22;35426;30.698;104.050;2023-06-22T05:01:51;32.50;99.90
17859;DHT22;35426;30.698;104.050;2023-06-22T05:04:25;32.50;99.90
17859;DHT22;35426;30.698;104.050;2023-06-22T05:07:00;32.00;99.90
17859;DHT22;35426;30.698;104.050;2023-06-22T05:09:36;32.10;99.90
17859;DHT22;35426;30.698;104.050;2023-06-22T05:12:11;31.50;99.90
17859;DHT22;35426;30.698;104.050;2023-06-22T05:14:45;32.10;99.90
17859;DHT22;35426;30.698;104.050;2023-06-22T05:17:19;32.60;99.90
17859;DHT22;35426;30.698;104.050;2023-06-22T05:19:52;32.60;99.90
17859;DHT22;35426;30.698;104.050;2023-06-22T05:22:30;32.90;99.90
17859;DHT22;35426;30.698;104.050;2023-06-22T05:25:07;33.50;99.90
17859;DHT22;35426;30.698;104.050;2023-06-22T05:27:43;33.60;99.90
17859;DHT22;35426;30.698;104.050;2023-06-22T05:30:19;33.80;99.90
17859;DHT22;35426;30.698;104.050;2023-06-22T05:32:54;33.20;99.90
17859;DHT22;35426;30.698;104.050;2023-06-22T05:35:28;32.80;99.90
17859;DHT22;35426;30.698;104.050;2023-06-22T05:38:03;32.90;99.90
17859;DHT22;35426;30.698;104.050;2023-06-22T05:40:37;32.10;99.90
17859;DHT22;35426;30.698;104.050;2023-06-22T05:43:11;32.00;99.90
17859;DHT22;35426;30.698;104.050;2023-06-22T05:45:46;31.90;99.90
17859;DHT22;35426;30.698;104.050;2023-06-22T05:48:20;31.20;99.90
17859;DHT22;35426;30.698;104.050;2023-06-22T05:50:55;30.90;99.90
17859;DHT22;35426;30.698;104.050;2023-06-22T05:53:29;31.00;99.90
17859;DHT22;35426;30.698;104.050;2023-06-22T05:56:05;31.40;99.90
17859;DHT22;35426;30.698;104.050;2023-06-22T05:58:38;31.80;99.90
17859;DHT22;35426;30.698;104.050;2023-06-22T06:01:12;32.00;99.90
17859;DHT22;35426;30.698;104.050;2023-06-22T06:03:46;32.40;99.90
17859;DHT22;35426;30.698;104.050;2023-06-22T06:06:20;32.30;99.90
17859;DHT22;35426;30.698;104.050;2023-06-22T06:09:02;32.10;99.90
17859;DHT22;35426;30.698;104.050;2023-06-22T06:11:37;32.20;99.90
17859;DHT22;35426;30.698;104.050;2023-06-22T06:14:10;32.20;99.90
17859;DHT22;35426;30.698;104.050;2023-06-22T06:16:45;32.30;99.90
17859;DHT22;35426;30.698;104.050;2023-06-22T06:19:19;32.30;99.90
17859;DHT22;35426;30.698;104.050;2023-06-22T06:21:55;32.20;99.90
17859;DHT22;35426;30.698;104.050;2023-06-22T06:24:30;32.10;99.90
17859;DHT22;35426;30.698;104.050;2023-06-22T06:27:03;32.30;99.90
17859;DHT22;35426;30.698;104.050;2023-06-22T06:29:37;32.30;99.90
17859;DHT22;35426;30.698;104.050;2023-06-22T06:32:11;32.20;99.90
17859;DHT22;35426;30.698;104.050;2023-06-22T06:34:45;31.80;99.90
17859;DHT22;35426;30.698;104.050;2023-06-22T06:37:18;31.80;99.90
17859;DHT22;35426;30.698;104.050;2023-06-22T06:39:54;31.90;99.90
17859;DHT22;35426;30.698;104.050;2023-06-22T06:42:27;31.80;99.90
17859;DHT22;35426;30.698;104.050;2023-06-22T06:45:02;31.90;99.90
17859;DHT22;35426;30.698;104.050;2023-06-22T06:47:36;32.00;99.90
17859;DHT22;35426;30.698;104.050;2023-06-22T06:50:10;32.10;99.90
17859;DHT22;35426;30.698;104.050;2023-06-22T06:52:45;32.30;99.90
17859;DHT22;35426;30.698;104.050;2023-06-22T06:55:23;32.50;99.90
17859;DHT22;35426;30.698;104.050;2023-06-22T06:57:58;32.40;99.90
17859;DHT22;35426;30.698;104.050;2023-06-22T07:00:31;32.10;99.90
17859;DHT22;35426;30.698;104.050;2023-06-22T07:03:06;31.40;99.90
17859;DHT22;35426;30.698;104.050;2023-06-22T07:05:42;31.60;99.90
17859;DHT22;35426;30.698;104.050;2023-06-22T07:08:17;32.20;99.90
17859;DHT22;35426;30.698;104.050;2023-06-22T07:10:53;32.80;99.90
17859;DHT22;35426;30.698;104.050;2023-06-22T07:13:27;33.00;99.90
17859;DHT22;35426;30.698;104.050;2023-06-22T07:16:01;32.70;99.90
17859;DHT22;35426;30.698;104.050;2023-06-22T07:18:40;31.80;99.90
17859;DHT22;35426;30.698;104.050;2023-06-22T07:21:14;31.30;99.90
17859;DHT22;35426;30.698;104.050;2023-06-22T07:23:49;31.80;99.90
17859;DHT22;35426;30.698;104.050;2023-06-22T07:26:27;31.80;99.90
17859;DHT22;35426;30.698;104.050;2023-06-22T07:29:04;31.40;99.90
17859;DHT22;35426;30.698;104.050;2023-06-22T07:31:40;31.10;99.90
17859;DHT22;35426;30.698;104.050;2023-06-22T07:34:15;31.10;99.90
17859;DHT22;35426;30.698;104.050;2023-06-22T07:36:48;30.60;99.90
17859;DHT22;35426;30.698;104.050;2023-06-22T07:39:22;30.80;99.90
17859;DHT22;35426;30.698;104.050;2023-06-22T07:42:00;31.10;99.90
17859;DHT22;35426;30.698;104.050;2023-06-22T07:44:33;31.40;99.90
17859;DHT22;35426;30.698;104.050;2023-06-22T07:47:08;31.80;99.90
17859;DHT22;35426;30.698;104.050;2023-06-22T07:49:44;32.20;99.90
17859;DHT22;35426;30.698;104.050;2023-06-22T07:52:19;32.30;99.90
17859;DHT22;35426;30.698;104.050;2023-06-22T07:54:53;32.40;99.90
17859;DHT22;35426;30.698;104.050;2023-06-22T07:57:30;32.30;99.90
17859;DHT22;35426;30.698;104.050;2023-06-22T08:00:07;32.50;99.90
17859;DHT22;35426;30.698;104.050;2023-06-22T08:02:45;32.10;99.90
17859;DHT22;35426;30.698;104.050;2023-06-22T08:05:19;32.20;99.90
17859;DHT22;35426;30.698;104.050;2023-06-22T08:07:54;32.10;99.90
17859;DHT22;35426;30.698;104.050;2023-06-22T08:10:30;32.00;99.90
17859;DHT22;35426;30.698;104.050;2023-06-22T08:13:07;32.10;99.90
17859;DHT22;35426;30.698;104.050;2023-06-22T08:15:41;31.90;99.90
17859;DHT22;35426;30.698;104.050;2023-06-22T08:18:19;32.10;99.90
17859;DHT22;35426;30.698;104.050;2023-06-22T08:20:52;32.30;99.90
17859;DHT22;35426;30.698;104.050;2023-06-22T08:23:27;32.40;99.90
17859;DHT22;35426;30.698;104.050;2023-06-22T08:26:00;32.50;99.90
17859;DHT22;35426;30.698;104.050;2023-06-22T08:28:42;32.60;99.90
17859;DHT22;35426;30.698;104.050;2023-06-22T08:31:19;32.60;99.90
17859;DHT22;35426;30.698;104.050;2023-06-22T08:33:58;32.40;99.90
17859;DHT22;35426;30.698;104.050;2023-06-22T08:36:33;32.60;99.90
17859;DHT22;35426;30.698;104.050;2023-06-22T08:39:19;32.40;99.90
17859;DHT22;35426;30.698;104.050;2023-06-22T08:41:55;32.60;99.90
17859;DHT22;35426;30.698;104.050;2023-06-22T08:44:32;32.60;99.90
17859;DHT22;35426;30.698;104.050;2023-06-22T08:47:07;32.60;99.90
17859;DHT22;35426;30.698;104.050;2023-06-22T08:49:41;32.60;99.90
17859;DHT22;35426;30.698;104.050;2023-06-22T08:52:17;32.50;99.90
17859;DHT22;35426;30.698;104.050;2023-06-22T08:54:52;32.30;99.90
17859;DHT22;35426;30.698;104.050;2023-06-22T08:57:27;32.00;99.90
17859;DHT22;35426;30.698;104.050;2023-06-22T09:00:07;32.10;99.90
17859;DHT22;35426;30.698;104.050;2023-06-22T09:02:51;31.80;99.90
17859;DHT22;35426;30.698;104.050;2023-06-22T09:05:30;31.70;99.90
17859;DHT22;35426;30.698;104.050;2023-06-22T09:08:05;31.70;99.90
17859;DHT22;35426;30.698;104.050;2023-06-22T09:10:40;31.30;99.90
17859;DHT22;35426;30.698;104.050;2023-06-22T09:13:14;31.20;99.90
17859;DHT22;35426;30.698;104.050;2023-06-22T09:15:50;30.90;99.90
17859;DHT22;35426;30.698;104.050;2023-06-22T09:18:27;31.40;99.90
17859;DHT22;35426;30.698;104.050;2023-06-22T09:21:02;31.60;99.90
17859;DHT22;35426;30.698;104.050;2023-06-22T09:23:37;31.60;99.90
17859;DHT22;35426;30.698;104.050;2023-06-22T09:26:11;31.30;99.90
17859;DHT22;35426;30.698;104.050;2023-06-22T09:28:46;31.20;99.90
17859;DHT22;35426;30.698;104.050;2023-06-22T09:31:23;31.20;99.90
17859;DHT22;35426;30.698;104.050;2023-06-22T09:33:59;31.40;99.90
17859;DHT22;35426;30.698;104.050;2023-06-22T09:36:33;31.00;99.90
17859;DHT22;35426;30.698;104.050;2023-06-22T09:39:07;30.60;99.90
17859;DHT22;35426;30.698;104.050;2023-06-22T09:41:42;30.50;99.90
17859;DHT22;35426;30.698;104.050;2023-06-22T09:44:17;30.30;99.90
17859;DHT22;35426;30.698;104.050;2023-06-22T09:46:54;30.40;99.90
17859;DHT22;35426;30.698;104.050;2023-06-22T09:49:29;30.40;99.90
17859;DHT22;35426;30.698;104.050;2023-06-22T09:52:16;30.50;99.90
17859;DHT22;35426;30.698;104.050;2023-06-22T09:54:56;30.60;99.90
17859;DHT22;35426;30.698;104.050;2023-06-22T09:57:29;30.60;99.90
17859;DHT22;35426;30.698;104.050;2023-06-22T10:00:04;30.40;99.90
17859;DHT22;35426;30.698;104.050;2023-06-22T10:02:43;30.30;99.90
17859;DHT22;35426;30.698;104.050;2023-06-22T10:05:17;30.30;99.90
17859;DHT22;35426;30.698;104.050;2023-06-22T10:07:52;30.30;99.90
17859;DHT22;35426;30.698;104.050;2023-06-22T10:10:28;30.30;99.90
17859;DHT22;35426;30.698;104.050;2023-06-22T10:13:08;30.40;99.90
17859;DHT22;35426;30.698;104.050;2023-06-22T10:15:42;30.40;99.90
17859;DHT22;35426;30.698;104.050;2023-06-22T10:18:21;30.10;99.90
17859;DHT22;35426;30.698;104.050;2023-06-22T10:20:56;30.20;99.90
17859;DHT22;35426;30.698;104.050;2023-06-22T10:23:28;30.20;99.90
17859;DHT22;35426;30.698;104.050;2023-06-22T10:26:02;30.10;99.90
17859;DHT22;35426;30.698;104.050;2023-06-22T10:28:36;30.20;99.90
17859;DHT22;35426;30.698;104.050;2023-06-22T10:31:10;30.20;99.90
17859;DHT22;35426;30.698;104.050;2023-06-22T10:33:46;29.90;99.90
17859;DHT22;35426;30.698;104.050;2023-06-22T10:36:21;29.90;99.90
17859;DHT22;35426;30.698;104.050;2023-06-22T10:38:54;30.00;99.90
17859;DHT22;35426;30.698;104.050;2023-06-22T10:41:32;30.00;99.90
17859;DHT22;35426;30.698;104.050;2023-06-22T10:44:06;30.00;99.90
17859;DHT22;35426;30.698;104.050;2023-06-22T10:46:40;29.80;99.90
17859;DHT22;35426;30.698;104.050;2023-06-22T10:49:15;29.60;99.90
17859;DHT22;35426;30.698;104.050;2023-06-22T10:51:48;29.30;99.90
17859;DHT22;35426;30.698;104.050;2023-06-22T10:54:22;29.20;99.90
17859;DHT22;35426;30.698;104.050;2023-06-22T10:56:56;29.10;99.90
17859;DHT22;35426;30.698;104.050;2023-06-22T10:59:30;29.20;99.90
17859;DHT22;35426;30.698;104.050;2023-06-22T11:02:03;29.50;99.90
17859;DHT22;35426;30.698;104.050;2023-06-22T11:04:43;29.50;99.90
17859;DHT22;35426;30.698;104.050;2023-06-22T11:07:18;29.50;99.90
17859;DHT22;35426;30.698;104.050;2023-06-22T11:09:51;29.60;99.90
17859;DHT22;35426;30.698;104.050;2023-06-22T11:12:25;29.60;99.90
17859;DHT22;35426;30.698;104.050;2023-06-22T11:15:00;29.60;99.90
17859;DHT22;35426;30.698;104.050;2023-06-22T11:17:33;29.60;99.90
17859;DHT22;35426;30.698;104.050;2023-06-22T11:20:12;29.70;99.90
17859;DHT22;35426;30.698;104.050;2023-06-22T11:22:47;29.70;99.90
17859;DHT22;35426;30.698;104.050;2023-06-22T11:25:21;29.70;99.90
17859;DHT22;35426;30.698;104.050;2023-06-22T11:27:57;29.70;99.90
17859;DHT22;35426;30.698;104.050;2023-06-22T11:30:31;29.60;99.90
17859;DHT22;35426;30.698;104.050;2023-06-22T11:33:06;29.60;99.90
17859;DHT22;35426;30.698;104.050;2023-06-22T11:35:42;29.50;99.90
17859;DHT22;35426;30.698;104.050;2023-06-22T11:38:17;29.50;99.90
17859;DHT22;35426;30.698;104.050;2023-06-22T11:40:53;29.50;99.90
17859;DHT22;35426;30.698;104.050;2023-06-22T11:43:27;29.50;99.90
17859;DHT22;35426;30.698;104.050;2023-06-22T11:46:02;29.40;99.90
17859;DHT22;35426;30.698;104.050;2023-06-22T11:48:36;29.40;99.90
17859;DHT22;35426;30.698;104.050;2023-06-22T11:51:13;29.30;99.90
17859;DHT22;35426;30.698;104.050;2023-06-22T11:53:48;29.30;99.90
17859;DHT22;35426;30.698;104.050;2023-06-22T11:56:23;29.30;99.90
17859;DHT22;35426;30.698;104.050;2023-06-22T11:58:58;29.20;99.90
17859;DHT22;35426;30.698;104.050;2023-06-22T12:01:34;29.10;99.90
17859;DHT22;35426;30.698;104.050;2023-06-22T12:04:07;29.10;99.90
17859;DHT22;35426;30.698;104.050;2023-06-22T12:06:45;29.10;99.90
17859;DHT22;35426;30.698;104.050;2023-06-22T12:09:18;29.20;99.90
17859;DHT22;35426;30.698;104.050;2023-06-22T12:11:53;29.20;99.90
17859;DHT22;35426;30.698;104.050;2023-06-22T12:14:28;29.10;99.90
17859;DHT22;35426;30.698;104.050;2023-06-22T12:17:03;29.00;99.90
17859;DHT22;35426;30.698;104.050;2023-06-22T12:19:36;28.90;99.90
17859;DHT22;35426;30.698;104.050;2023-06-22T12:22:12;28.90;99.90
17859;DHT22;35426;30.698;104.050;2023-06-22T12:24:47;28.80;99.90
17859;DHT22;35426;30.698;104.050;2023-06-22T12:27:21;28.70;99.90
17859;DHT22;35426;30.698;104.050;2023-06-22T12:29:56;28.70;99.90
17859;DHT22;35426;30.698;104.050;2023-06-22T12:32:31;28.70;99.90
17859;DHT22;35426;30.698;104.050;2023-06-22T12:35:07;28.70;99.90
17859;DHT22;35426;30.698;104.050;2023-06-22T12:37:46;28.70;99.90
17859;DHT22;35426;30.698;104.050;2023-06-22T12:40:24;28.60;99.90
17859;DHT22;35426;30.698;104.050;2023-06-22T12:42:59;28.60;99.90
17859;DHT22;35426;30.698;104.050;2023-06-22T12:45:33;28.70;99.90
17859;DHT22;35426;30.698;104.050;2023-06-22T12:48:08;28.70;99.90
17859;DHT22;35426;30.698;104.050;2023-06-22T12:50:43;28.60;99.90
17859;DHT22;35426;30.698;104.050;2023-06-22T12:53:20;28.60;99.90
17859;DHT22;35426;30.698;104.050;2023-06-22T12:55:56;28.60;99.90
17859;DHT22;35426;30.698;104.050;2023-06-22T12:58:29;28.60;99.90
17859;DHT22;35426;30.698;104.050;2023-06-22T13:01:05;28.60;99.90
17859;DHT22;35426;30.698;104.050;2023-06-22T13:03:41;28.50;99.90
17859;DHT22;35426;30.698;104.050;2023-06-22T13:06:16;28.60;99.90
17859;DHT22;35426;30.698;104.050;2023-06-22T13:08:52;28.50;99.90
17859;DHT22;35426;30.698;104.050;2023-06-22T13:11:47;28.50;99.90
17859;DHT22;35426;30.698;104.050;2023-06-22T13:14:20;28.50;99.90
17859;DHT22;35426;30.698;104.050;2023-06-22T13:16:54;28.40;99.90
17859;DHT22;35426;30.698;104.050;2023-06-22T13:19:31;28.40;99.90
17859;DHT22;35426;30.698;104.050;2023-06-22T13:22:05;28.30;99.90
17859;DHT22;35426;30.698;104.050;2023-06-22T13:24:43;28.30;99.90
17859;DHT22;35426;30.698;104.050;2023-06-22T13:27:18;28.30;99.90
17859;DHT22;35426;30.698;104.050;2023-06-22T13:29:52;28.20;99.90
17859;DHT22;35426;30.698;104.050;2023-06-22T13:32:27;28.30;99.90
17859;DHT22;35426;30.698;104.050;2023-06-22T13:35:00;28.40;99.90
17859;DHT22;35426;30.698;104.050;2023-06-22T13:37:35;28.30;99.90
17859;DHT22;35426;30.698;104.050;2023-06-22T13:40:12;28.40;99.90
17859;DHT22;35426;30.698;104.050;2023-06-22T13:42:46;28.30;99.90
17859;DHT22;35426;30.698;104.050;2023-06-22T13:45:24;28.30;99.90
17859;DHT22;35426;30.698;104.050;2023-06-22T13:48:00;28.30;99.90
17859;DHT22;35426;30.698;104.050;2023-06-22T13:50:38;28.30;99.90
17859;DHT22;35426;30.698;104.050;2023-06-22T13:53:21;28.20;99.90
17859;DHT22;35426;30.698;104.050;2023-06-22T13:55:58;28.20;99.90
17859;DHT22;35426;30.698;104.050;2023-06-22T13:58:33;28.20;99.90
17859;DHT22;35426;30.698;104.050;2023-06-22T14:01:08;28.30;99.90
17859;DHT22;35426;30.698;104.050;2023-06-22T14:03:46;28.20;99.90
17859;DHT22;35426;30.698;104.050;2023-06-22T14:06:20;28.20;99.90
17859;DHT22;35426;30.698;104.050;2023-06-22T14:08:57;28.20;99.90
17859;DHT22;35426;30.698;104.050;2023-06-22T14:11:35;28.20;99.90
17859;DHT22;35426;30.698;104.050;2023-06-22T14:14:10;28.20;99.90
17859;DHT22;35426;30.698;104.050;2023-06-22T14:16:44;28.20;99.90
17859;DHT22;35426;30.698;104.050;2023-06-22T14:19:21;28.20;99.90
17859;DHT22;35426;30.698;104.050;2023-06-22T14:21:54;28.10;99.90
17859;DHT22;35426;30.698;104.050;2023-06-22T14:24:27;28.20;99.90
17859;DHT22;35426;30.698;104.050;2023-06-22T14:27:03;28.10;99.90
17859;DHT22;35426;30.698;104.050;2023-06-22T14:29:38;28.10;99.90
17859;DHT22;35426;30.698;104.050;2023-06-22T14:32:13;28.10;99.90
17859;DHT22;35426;30.698;104.050;2023-06-22T14:34:50;28.00;99.90
17859;DHT22;35426;30.698;104.050;2023-06-22T14:37:24;28.10;99.90
17859;DHT22;35426;30.698;104.050;2023-06-22T14:39:57;28.10;99.90
17859;DHT22;35426;30.698;104.050;2023-06-22T14:42:36;28.00;99.90
17859;DHT22;35426;30.698;104.050;2023-06-22T14:45:09;28.00;99.90
17859;DHT22;35426;30.698;104.050;2023-06-22T14:47:47;28.00;99.90
17859;DHT22;35426;30.698;104.050;2023-06-22T14:50:21;28.00;99.90
17859;DHT22;35426;30.698;104.050;2023-06-22T14:52:56;28.00;99.90
17859;DHT22;35426;30.698;104.050;2023-06-22T14:55:33;27.90;99.90
17859;DHT22;35426;30.698;104.050;2023-06-22T14:58:11;27.90;99.90
17859;DHT22;35426;30.698;104.050;2023-06-22T15:00:45;27.90;99.90
17859;DHT22;35426;30.698;104.050;2023-06-22T15:03:18;27.80;99.90
17859;DHT22;35426;30.698;104.050;2023-06-22T15:06:00;27.80;99.90
17859;DHT22;35426;30.698;104.050;2023-06-22T15:08:38;27.80;99.90
17859;DHT22;35426;30.698;104.050;2023-06-22T15:11:17;27.80;99.90
17859;DHT22;35426;30.698;104.050;2023-06-22T15:13:57;27.80;99.90
17859;DHT22;35426;30.698;104.050;2023-06-22T15:16:38;27.80;99.90
17859;DHT22;35426;30.698;104.050;2023-06-22T15:19:12;27.80;99.90
17859;DHT22;35426;30.698;104.050;2023-06-22T15:21:48;27.80;99.90
17859;DHT22;35426;30.698;104.050;2023-06-22T15:24:22;27.80;99.90
17859;DHT22;35426;30.698;104.050;2023-06-22T15:26:57;27.60;99.90
17859;DHT22;35426;30.698;104.050;2023-06-22T15:29:33;27.30;99.90
17859;DHT22;35426;30.698;104.050;2023-06-22T15:32:08;27.10;99.90
17859;DHT22;35426;30.698;104.050;2023-06-22T15:34:43;27.10;99.90
17859;DHT22;35426;30.698;104.050;2023-06-22T15:37:18;27.20;99.90
17859;DHT22;35426;30.698;104.050;2023-06-22T15:39:53;27.10;99.90
17859;DHT22;35426;30.698;104.050;2023-06-22T15:42:29;27.10;99.90
17859;DHT22;35426;30.698;104.050;2023-06-22T15:45:06;27.10;99.90
17859;DHT22;35426;30.698;104.050;2023-06-22T15:47:42;27.00;99.90
17859;DHT22;35426;30.698;104.050;2023-06-22T15:50:16;26.80;99.90
17859;DHT22;35426;30.698;104.050;2023-06-22T15:52:49;26.90;99.90
17859;DHT22;35426;30.698;104.050;2023-06-22T15:55:25;26.80;99.90